sensor_id;sensor_type;location;lat;lon;timestamp;temperature;humidity
24426;DHT22;12611;44.446;26.000;2023-06-14T00:00:16;22.10;69.10
24426;DHT22;12611;44.446;26.000;2023-06-14T00:02:45;22.10;69.20
24426;DHT22;12611;44.446;26.000;2023-06-14T00:05:13;22.10;69.20
24426;DHT22;12611;44.446;26.000;2023-06-14T00:07:42;22.10;69.20
24426;DHT22;12611;44.446;26.000;2023-06-14T00:10:11;22.10;69.20
24426;DHT22;12611;44.446;26.000;2023-06-14T00:12:41;22.10;69.60
24426;DHT22;12611;44.446;26.000;2023-06-14T00:15:11;22.10;69.60
24426;DHT22;12611;44.446;26.000;2023-06-14T00:17:39;22.10;69.70
24426;DHT22;12611;44.446;26.000;2023-06-14T00:20:09;22.10;69.70
24426;DHT22;12611;44.446;26.000;2023-06-14T00:22:38;22.00;69.70
24426;DHT22;12611;44.446;26.000;2023-06-14T00:25:07;22.10;69.80
24426;DHT22;12611;44.446;26.000;2023-06-14T00:27:55;22.00;69.70
24426;DHT22;12611;44.446;26.000;2023-06-14T00:30:25;22.00;69.50
24426;DHT22;12611;44.446;26.000;2023-06-14T00:32:58;22.00;69.60
24426;DHT22;12611;44.446;26.000;2023-06-14T00:35:27;22.00;69.60
24426;DHT22;12611;44.446;26.000;2023-06-14T00:37:55;22.00;69.40
24426;DHT22;12611;44.446;26.000;2023-06-14T00:40:24;22.00;69.30
24426;DHT22;12611;44.446;26.000;2023-06-14T00:42:52;22.00;69.30
24426;DHT22;12611;44.446;26.000;2023-06-14T00:45:21;21.90;69.40
24426;DHT22;12611;44.446;26.000;2023-06-14T00:47:51;21.90;69.30
24426;DHT22;12611;44.446;26.000;2023-06-14T00:50:23;21.90;69.30
24426;DHT22;12611;44.446;26.000;2023-06-14T00:52:52;21.90;69.30
24426;DHT22;12611;44.446;26.000;2023-06-14T00:55:20;21.90;69.30
24426;DHT22;12611;44.446;26.000;2023-06-14T00:57:49;21.90;69.30
24426;DHT22;12611;44.446;26.000;2023-06-14T01:00:18;21.80;69.40
24426;DHT22;12611;44.446;26.000;2023-06-14T01:02:47;21.90;69.40
24426;DHT22;12611;44.446;26.000;2023-06-14T01:05:18;21.90;69.40
24426;DHT22;12611;44.446;26.000;2023-06-14T01:07:56;21.80;69.30
24426;DHT22;12611;44.446;26.000;2023-06-14T01:10:35;21.80;69.50
24426;DHT22;12611;44.446;26.000;2023-06-14T01:13:11;21.80;69.40
24426;DHT22;12611;44.446;26.000;2023-06-14T01:15:43;21.80;70.20
24426;DHT22;12611;44.446;26.000;2023-06-14T01:18:12;21.80;69.40
24426;DHT22;12611;44.446;26.000;2023-06-14T01:20:47;21.70;69.30
24426;DHT22;12611;44.446;26.000;2023-06-14T01:23:19;21.80;69.30
24426;DHT22;12611;44.446;26.000;2023-06-14T01:25:48;21.70;69.20
24426;DHT22;12611;44.446;26.000;2023-06-14T01:28:21;21.70;69.30
24426;DHT22;12611;44.446;26.000;2023-06-14T01:30:52;21.70;69.30
24426;DHT22;12611;44.446;26.000;2023-06-14T01:33:23;21.70;69.50
24426;DHT22;12611;44.446;26.000;2023-06-14T01:35:55;21.70;69.60
24426;DHT22;12611;44.446;26.000;2023-06-14T01:38:26;21.60;69.60
24426;DHT22;12611;44.446;26.000;2023-06-14T01:40:57;21.60;69.60
24426;DHT22;12611;44.446;26.000;2023-06-14T01:43:26;21.60;69.80
24426;DHT22;12611;44.446;26.000;2023-06-14T01:45:57;21.60;69.90
24426;DHT22;12611;44.446;26.000;2023-06-14T01:48:26;21.60;69.80
24426;DHT22;12611;44.446;26.000;2023-06-14T01:50:55;21.60;69.70
24426;DHT22;12611;44.446;26.000;2023-06-14T01:53:23;21.50;69.90
24426;DHT22;12611;44.446;26.000;2023-06-14T01:55:53;21.60;69.70
24426;DHT22;12611;44.446;26.000;2023-06-14T01:58:22;21.60;69.60
24426;DHT22;12611;44.446;26.000;2023-06-14T02:00:51;21.50;69.60
24426;DHT22;12611;44.446;26.000;2023-06-14T02:03:22;21.50;69.80
24426;DHT22;12611;44.446;26.000;2023-06-14T02:05:52;21.50;69.70
24426;DHT22;12611;44.446;26.000;2023-06-14T02:08:21;21.50;69.80
24426;DHT22;12611;44.446;26.000;2023-06-14T02:10:52;21.50;69.80
24426;DHT22;12611;44.446;26.000;2023-06-14T02:13:21;21.50;69.80
24426;DHT22;12611;44.446;26.000;2023-06-14T02:15:50;21.50;69.70
24426;DHT22;12611;44.446;26.000;2023-06-14T02:18:22;21.50;69.90
24426;DHT22;12611;44.446;26.000;2023-06-14T02:20:51;21.50;70.00
24426;DHT22;12611;44.446;26.000;2023-06-14T02:23:20;21.40;70.00
24426;DHT22;12611;44.446;26.000;2023-06-14T02:25:48;21.50;70.30
24426;DHT22;12611;44.446;26.000;2023-06-14T02:28:18;21.40;70.20
24426;DHT22;12611;44.446;26.000;2023-06-14T02:30:47;21.40;71.00
24426;DHT22;12611;44.446;26.000;2023-06-14T02:33:17;21.40;70.30
24426;DHT22;12611;44.446;26.000;2023-06-14T02:35:45;21.40;70.20
24426;DHT22;12611;44.446;26.000;2023-06-14T02:38:14;21.40;70.20
24426;DHT22;12611;44.446;26.000;2023-06-14T02:40:43;21.40;70.20
24426;DHT22;12611;44.446;26.000;2023-06-14T02:43:11;21.40;70.20
24426;DHT22;12611;44.446;26.000;2023-06-14T02:45:41;21.40;70.20
24426;DHT22;12611;44.446;26.000;2023-06-14T02:48:10;21.40;70.10
24426;DHT22;12611;44.446;26.000;2023-06-14T02:50:39;21.40;70.30
24426;DHT22;12611;44.446;26.000;2023-06-14T02:53:07;21.40;70.40
24426;DHT22;12611;44.446;26.000;2023-06-14T02:55:39;21.40;70.50
24426;DHT22;12611;44.446;26.000;2023-06-14T02:58:08;21.40;70.40
24426;DHT22;12611;44.446;26.000;2023-06-14T03:00:37;21.40;70.40
24426;DHT22;12611;44.446;26.000;2023-06-14T03:03:07;21.40;70.50
24426;DHT22;12611;44.446;26.000;2023-06-14T03:05:43;21.40;70.60
24426;DHT22;12611;44.446;26.000;2023-06-14T03:08:13;21.40;70.80
24426;DHT22;12611;44.446;26.000;2023-06-14T03:10:44;21.40;70.80
24426;DHT22;12611;44.446;26.000;2023-06-14T03:13:12;21.40;71.00
24426;DHT22;12611;44.446;26.000;2023-06-14T03:15:43;21.40;71.30
24426;DHT22;12611;44.446;26.000;2023-06-14T03:18:13;21.40;71.10
24426;DHT22;12611;44.446;26.000;2023-06-14T03:20:43;21.50;71.50
24426;DHT22;12611;44.446;26.000;2023-06-14T03:23:12;21.40;71.30
24426;DHT22;12611;44.446;26.000;2023-06-14T03:25:41;21.50;71.40
24426;DHT22;12611;44.446;26.000;2023-06-14T03:28:10;21.50;71.60
24426;DHT22;12611;44.446;26.000;2023-06-14T03:30:38;21.50;71.50
24426;DHT22;12611;44.446;26.000;2023-06-14T03:33:07;21.50;71.20
24426;DHT22;12611;44.446;26.000;2023-06-14T03:35:38;21.60;71.20
24426;DHT22;12611;44.446;26.000;2023-06-14T03:38:06;21.60;71.10
24426;DHT22;12611;44.446;26.000;2023-06-14T03:40:36;21.60;71.20
24426;DHT22;12611;44.446;26.000;2023-06-14T03:43:04;21.60;71.20
24426;DHT22;12611;44.446;26.000;2023-06-14T03:45:32;21.60;71.30
24426;DHT22;12611;44.446;26.000;2023-06-14T03:48:01;21.70;71.20
24426;DHT22;12611;44.446;26.000;2023-06-14T03:50:30;21.70;71.20
24426;DHT22;12611;44.446;26.000;2023-06-14T03:53:00;21.60;71.50
24426;DHT22;12611;44.446;26.000;2023-06-14T03:55:29;21.70;71.40
24426;DHT22;12611;44.446;26.000;2023-06-14T03:58:03;21.70;71.30
24426;DHT22;12611;44.446;26.000;2023-06-14T04:00:31;21.70;71.60
24426;DHT22;12611;44.446;26.000;2023-06-14T04:03:00;21.70;71.50
24426;DHT22;12611;44.446;26.000;2023-06-14T04:05:30;21.70;71.50
24426;DHT22;12611;44.446;26.000;2023-06-14T04:08:00;21.70;71.30
24426;DHT22;12611;44.446;26.000;2023-06-14T04:10:29;21.70;71.30
24426;DHT22;12611;44.446;26.000;2023-06-14T04:12:58;21.80;71.40
24426;DHT22;12611;44.446;26.000;2023-06-14T04:15:27;21.80;71.40
24426;DHT22;12611;44.446;26.000;2023-06-14T04:17:56;21.80;71.40
24426;DHT22;12611;44.446;26.000;2023-06-14T04:20:25;21.80;71.50
24426;DHT22;12611;44.446;26.000;2023-06-14T04:22:56;21.80;71.40
24426;DHT22;12611;44.446;26.000;2023-06-14T04:25:26;21.90;71.30
24426;DHT22;12611;44.446;26.000;2023-06-14T04:27:55;21.90;71.30
24426;DHT22;12611;44.446;26.000;2023-06-14T04:30:24;21.90;71.20
24426;DHT22;12611;44.446;26.000;2023-06-14T04:32:55;22.00;71.20
24426;DHT22;12611;44.446;26.000;2023-06-14T04:35:24;22.00;71.20
24426;DHT22;12611;44.446;26.000;2023-06-14T04:37:54;22.00;71.30
24426;DHT22;12611;44.446;26.000;2023-06-14T04:40:25;22.00;71.20
24426;DHT22;12611;44.446;26.000;2023-06-14T04:42:54;22.00;71.20
24426;DHT22;12611;44.446;26.000;2023-06-14T04:45:23;22.00;71.20
24426;DHT22;12611;44.446;26.000;2023-06-14T04:47:59;22.00;71.10
24426;DHT22;12611;44.446;26.000;2023-06-14T04:50:28;22.00;71.00
24426;DHT22;12611;44.446;26.000;2023-06-14T04:53:00;22.00;70.90
24426;DHT22;12611;44.446;26.000;2023-06-14T04:55:30;22.10;70.90
24426;DHT22;12611;44.446;26.000;2023-06-14T04:57:59;22.10;70.90
24426;DHT22;12611;44.446;26.000;2023-06-14T05:00:29;22.10;70.90
24426;DHT22;12611;44.446;26.000;2023-06-14T05:02:58;22.10;70.80
24426;DHT22;12611;44.446;26.000;2023-06-14T05:05:28;22.10;70.90
24426;DHT22;12611;44.446;26.000;2023-06-14T05:07:56;22.10;70.90
24426;DHT22;12611;44.446;26.000;2023-06-14T05:10:25;22.10;70.90
24426;DHT22;12611;44.446;26.000;2023-06-14T05:12:55;22.10;70.80
24426;DHT22;12611;44.446;26.000;2023-06-14T05:15:24;22.10;70.90
24426;DHT22;12611;44.446;26.000;2023-06-14T05:17:53;22.10;70.90
24426;DHT22;12611;44.446;26.000;2023-06-14T05:20:23;22.20;70.80
24426;DHT22;12611;44.446;26.000;2023-06-14T05:22:53;22.10;70.90
24426;DHT22;12611;44.446;26.000;2023-06-14T05:25:23;22.20;70.90
24426;DHT22;12611;44.446;26.000;2023-06-14T05:27:52;22.20;71.00
24426;DHT22;12611;44.446;26.000;2023-06-14T05:30:22;22.20;70.90
24426;DHT22;12611;44.446;26.000;2023-06-14T05:32:51;22.20;70.90
24426;DHT22;12611;44.446;26.000;2023-06-14T05:35:19;22.20;70.80
24426;DHT22;12611;44.446;26.000;2023-06-14T05:37:49;22.20;70.90
24426;DHT22;12611;44.446;26.000;2023-06-14T05:40:18;22.30;70.90
24426;DHT22;12611;44.446;26.000;2023-06-14T05:42:47;22.30;70.90
24426;DHT22;12611;44.446;26.000;2023-06-14T05:45:15;22.40;71.00
24426;DHT22;12611;44.446;26.000;2023-06-14T05:47:45;22.40;70.90
24426;DHT22;12611;44.446;26.000;2023-06-14T05:50:14;22.50;70.80
24426;DHT22;12611;44.446;26.000;2023-06-14T05:52:43;22.50;70.80
24426;DHT22;12611;44.446;26.000;2023-06-14T05:55:11;22.60;70.80
24426;DHT22;12611;44.446;26.000;2023-06-14T05:57:41;22.70;70.80
24426;DHT22;12611;44.446;26.000;2023-06-14T06:00:10;22.80;70.80
24426;DHT22;12611;44.446;26.000;2023-06-14T06:02:41;22.90;70.70
24426;DHT22;12611;44.446;26.000;2023-06-14T06:05:13;23.00;70.60
24426;DHT22;12611;44.446;26.000;2023-06-14T06:07:43;23.00;70.20
24426;DHT22;12611;44.446;26.000;2023-06-14T06:10:12;23.10;70.10
24426;DHT22;12611;44.446;26.000;2023-06-14T06:12:41;23.20;70.10
24426;DHT22;12611;44.446;26.000;2023-06-14T06:15:10;23.30;70.10
24426;DHT22;12611;44.446;26.000;2023-06-14T06:17:40;23.40;69.90
24426;DHT22;12611;44.446;26.000;2023-06-14T06:20:23;23.40;69.80
24426;DHT22;12611;44.446;26.000;2023-06-14T06:22:56;23.50;69.30
24426;DHT22;12611;44.446;26.000;2023-06-14T06:25:26;23.60;69.00
24426;DHT22;12611;44.446;26.000;2023-06-14T06:27:58;23.60;68.80
24426;DHT22;12611;44.446;26.000;2023-06-14T06:30:26;23.60;68.60
24426;DHT22;12611;44.446;26.000;2023-06-14T06:32:55;23.60;68.70
24426;DHT22;12611;44.446;26.000;2023-06-14T06:35:25;23.70;68.90
24426;DHT22;12611;44.446;26.000;2023-06-14T06:37:54;23.70;68.90
24426;DHT22;12611;44.446;26.000;2023-06-14T06:40:23;23.70;68.80
24426;DHT22;12611;44.446;26.000;2023-06-14T06:42:52;23.80;68.60
24426;DHT22;12611;44.446;26.000;2023-06-14T06:45:21;23.80;68.60
24426;DHT22;12611;44.446;26.000;2023-06-14T06:47:52;23.90;68.50
24426;DHT22;12611;44.446;26.000;2023-06-14T06:50:20;23.90;68.60
24426;DHT22;12611;44.446;26.000;2023-06-14T06:52:53;24.00;68.70
24426;DHT22;12611;44.446;26.000;2023-06-14T06:55:22;24.00;68.60
24426;DHT22;12611;44.446;26.000;2023-06-14T06:57:51;24.10;69.40
24426;DHT22;12611;44.446;26.000;2023-06-14T07:00:21;24.20;68.60
24426;DHT22;12611;44.446;26.000;2023-06-14T07:02:50;24.20;68.60
24426;DHT22;12611;44.446;26.000;2023-06-14T07:05:19;24.30;68.50
24426;DHT22;12611;44.446;26.000;2023-06-14T07:07:48;24.20;68.20
24426;DHT22;12611;44.446;26.000;2023-06-14T07:10:18;24.30;68.10
24426;DHT22;12611;44.446;26.000;2023-06-14T07:12:46;24.40;68.10
24426;DHT22;12611;44.446;26.000;2023-06-14T07:15:15;24.40;68.20
24426;DHT22;12611;44.446;26.000;2023-06-14T07:17:44;24.50;68.20
24426;DHT22;12611;44.446;26.000;2023-06-14T07:20:13;24.50;68.20
24426;DHT22;12611;44.446;26.000;2023-06-14T07:22:43;24.60;68.20
24426;DHT22;12611;44.446;26.000;2023-06-14T07:25:12;24.60;67.90
24426;DHT22;12611;44.446;26.000;2023-06-14T07:27:46;24.60;67.80
24426;DHT22;12611;44.446;26.000;2023-06-14T07:30:14;24.70;67.70
24426;DHT22;12611;44.446;26.000;2023-06-14T07:32:43;24.70;67.70
24426;DHT22;12611;44.446;26.000;2023-06-14T07:35:11;24.70;67.60
24426;DHT22;12611;44.446;26.000;2023-06-14T07:37:40;24.80;67.60
24426;DHT22;12611;44.446;26.000;2023-06-14T07:40:10;24.80;67.40
24426;DHT22;12611;44.446;26.000;2023-06-14T07:42:39;24.80;67.30
24426;DHT22;12611;44.446;26.000;2023-06-14T07:45:11;24.90;67.00
24426;DHT22;12611;44.446;26.000;2023-06-14T07:47:40;24.90;66.90
24426;DHT22;12611;44.446;26.000;2023-06-14T07:50:09;25.00;67.00
24426;DHT22;12611;44.446;26.000;2023-06-14T07:52:39;25.00;66.70
24426;DHT22;12611;44.446;26.000;2023-06-14T07:55:08;25.00;66.40
24426;DHT22;12611;44.446;26.000;2023-06-14T07:57:37;25.10;66.50
24426;DHT22;12611;44.446;26.000;2023-06-14T08:00:09;25.20;66.50
24426;DHT22;12611;44.446;26.000;2023-06-14T08:02:41;25.20;66.50
24426;DHT22;12611;44.446;26.000;2023-06-14T08:05:10;25.20;66.30
24426;DHT22;12611;44.446;26.000;2023-06-14T08:07:39;25.30;66.30
24426;DHT22;12611;44.446;26.000;2023-06-14T08:10:09;25.30;66.00
24426;DHT22;12611;44.446;26.000;2023-06-14T08:12:38;25.40;66.00
24426;DHT22;12611;44.446;26.000;2023-06-14T08:15:09;25.40;65.70
24426;DHT22;12611;44.446;26.000;2023-06-14T08:17:42;25.40;65.20
24426;DHT22;12611;44.446;26.000;2023-06-14T08:20:12;25.50;65.30
24426;DHT22;12611;44.446;26.000;2023-06-14T08:22:40;25.50;64.90
24426;DHT22;12611;44.446;26.000;2023-06-14T08:25:09;25.60;64.80
24426;DHT22;12611;44.446;26.000;2023-06-14T08:27:39;25.60;64.10
24426;DHT22;12611;44.446;26.000;2023-06-14T08:30:12;25.60;63.50
24426;DHT22;12611;44.446;26.000;2023-06-14T08:32:40;25.60;63.80
24426;DHT22;12611;44.446;26.000;2023-06-14T08:35:09;25.60;63.90
24426;DHT22;12611;44.446;26.000;2023-06-14T08:37:38;25.60;63.90
24426;DHT22;12611;44.446;26.000;2023-06-14T08:40:19;25.70;63.80
24426;DHT22;12611;44.446;26.000;2023-06-14T08:42:51;25.70;63.40
24426;DHT22;12611;44.446;26.000;2023-06-14T08:45:23;25.70;63.50
24426;DHT22;12611;44.446;26.000;2023-06-14T08:47:55;25.70;63.80
24426;DHT22;12611;44.446;26.000;2023-06-14T08:50:27;25.70;63.70
24426;DHT22;12611;44.446;26.000;2023-06-14T08:53:01;25.70;63.50
24426;DHT22;12611;44.446;26.000;2023-06-14T08:55:31;25.80;63.70
24426;DHT22;12611;44.446;26.000;2023-06-14T08:58:03;25.80;63.40
24426;DHT22;12611;44.446;26.000;2023-06-14T09:00:34;25.80;63.30
24426;DHT22;12611;44.446;26.000;2023-06-14T09:03:04;25.80;63.40
24426;DHT22;12611;44.446;26.000;2023-06-14T09:05:40;25.80;63.30
24426;DHT22;12611;44.446;26.000;2023-06-14T09:08:09;25.80;63.00
24426;DHT22;12611;44.446;26.000;2023-06-14T09:10:39;25.90;63.00
24426;DHT22;12611;44.446;26.000;2023-06-14T09:13:08;25.90;62.70
24426;DHT22;12611;44.446;26.000;2023-06-14T09:15:38;25.90;62.50
24426;DHT22;12611;44.446;26.000;2023-06-14T09:18:06;26.00;62.50
24426;DHT22;12611;44.446;26.000;2023-06-14T09:20:36;26.10;62.70
24426;DHT22;12611;44.446;26.000;2023-06-14T09:23:05;26.20;62.80
24426;DHT22;12611;44.446;26.000;2023-06-14T09:25:42;26.20;62.70
24426;DHT22;12611;44.446;26.000;2023-06-14T09:28:12;26.30;62.70
24426;DHT22;12611;44.446;26.000;2023-06-14T09:30:42;26.30;62.70
24426;DHT22;12611;44.446;26.000;2023-06-14T09:33:11;26.50;62.70
24426;DHT22;12611;44.446;26.000;2023-06-14T09:35:45;26.50;62.40
24426;DHT22;12611;44.446;26.000;2023-06-14T09:38:14;26.60;62.40
24426;DHT22;12611;44.446;26.000;2023-06-14T09:40:42;26.70;62.00
24426;DHT22;12611;44.446;26.000;2023-06-14T09:43:11;26.80;61.60
24426;DHT22;12611;44.446;26.000;2023-06-14T09:45:39;26.90;61.30
24426;DHT22;12611;44.446;26.000;2023-06-14T09:48:09;26.90;60.60
24426;DHT22;12611;44.446;26.000;2023-06-14T09:50:39;26.90;59.80
24426;DHT22;12611;44.446;26.000;2023-06-14T09:53:10;27.00;60.20
24426;DHT22;12611;44.446;26.000;2023-06-14T09:55:41;26.90;59.00
24426;DHT22;12611;44.446;26.000;2023-06-14T09:58:10;26.80;58.80
24426;DHT22;12611;44.446;26.000;2023-06-14T10:00:40;26.80;59.50
24426;DHT22;12611;44.446;26.000;2023-06-14T10:03:27;26.80;59.20
24426;DHT22;12611;44.446;26.000;2023-06-14T10:06:10;26.90;59.60
24426;DHT22;12611;44.446;26.000;2023-06-14T10:08:40;27.00;59.70
24426;DHT22;12611;44.446;26.000;2023-06-14T10:11:08;27.00;59.80
24426;DHT22;12611;44.446;26.000;2023-06-14T10:13:37;27.00;59.70
24426;DHT22;12611;44.446;26.000;2023-06-14T10:16:10;27.10;59.80
24426;DHT22;12611;44.446;26.000;2023-06-14T10:18:48;27.10;59.70
24426;DHT22;12611;44.446;26.000;2023-06-14T10:21:23;27.20;59.70
24426;DHT22;12611;44.446;26.000;2023-06-14T10:23:56;27.20;59.70
24426;DHT22;12611;44.446;26.000;2023-06-14T10:26:28;27.20;59.60
24426;DHT22;12611;44.446;26.000;2023-06-14T10:28:59;27.20;59.60
24426;DHT22;12611;44.446;26.000;2023-06-14T10:31:42;27.30;59.60
24426;DHT22;12611;44.446;26.000;2023-06-14T10:34:21;27.30;59.70
24426;DHT22;12611;44.446;26.000;2023-06-14T10:37:04;27.30;59.20
24426;DHT22;12611;44.446;26.000;2023-06-14T10:39:39;27.30;59.20
24426;DHT22;12611;44.446;26.000;2023-06-14T10:42:08;27.40;59.40
24426;DHT22;12611;44.446;26.000;2023-06-14T10:44:42;27.40;59.50
24426;DHT22;12611;44.446;26.000;2023-06-14T10:47:24;27.40;59.50
24426;DHT22;12611;44.446;26.000;2023-06-14T10:49:57;27.50;59.50
24426;DHT22;12611;44.446;26.000;2023-06-14T10:52:27;27.60;59.10
24426;DHT22;12611;44.446;26.000;2023-06-14T10:55:03;27.60;59.20
24426;DHT22;12611;44.446;26.000;2023-06-14T10:57:33;27.60;59.10
24426;DHT22;12611;44.446;26.000;2023-06-14T11:00:06;27.60;58.60
24426;DHT22;12611;44.446;26.000;2023-06-14T11:05:49;27.70;59.00
24426;DHT22;12611;44.446;26.000;2023-06-14T11:08:56;27.90;58.90
24426;DHT22;12611;44.446;26.000;2023-06-14T11:11:32;27.90;58.60
24426;DHT22;12611;44.446;26.000;2023-06-14T11:14:01;28.10;58.90
24426;DHT22;12611;44.446;26.000;2023-06-14T11:16:30;28.20;58.90
24426;DHT22;12611;44.446;26.000;2023-06-14T11:19:01;28.30;58.90
24426;DHT22;12611;44.446;26.000;2023-06-14T11:21:33;28.30;58.80
24426;DHT22;12611;44.446;26.000;2023-06-14T11:24:02;28.30;58.80
24426;DHT22;12611;44.446;26.000;2023-06-14T11:26:31;28.40;58.50
24426;DHT22;12611;44.446;26.000;2023-06-14T11:29:01;28.40;58.40
24426;DHT22;12611;44.446;26.000;2023-06-14T11:31:30;28.40;58.20
24426;DHT22;12611;44.446;26.000;2023-06-14T11:34:00;28.40;57.90
24426;DHT22;12611;44.446;26.000;2023-06-14T11:36:33;28.40;57.90
24426;DHT22;12611;44.446;26.000;2023-06-14T11:39:03;28.30;57.70
24426;DHT22;12611;44.446;26.000;2023-06-14T11:41:36;28.30;57.70
24426;DHT22;12611;44.446;26.000;2023-06-14T11:44:05;28.30;57.80
24426;DHT22;12611;44.446;26.000;2023-06-14T11:46:34;28.30;57.90
24426;DHT22;12611;44.446;26.000;2023-06-14T11:49:04;28.30;58.20
24426;DHT22;12611;44.446;26.000;2023-06-14T11:51:36;28.30;58.30
24426;DHT22;12611;44.446;26.000;2023-06-14T11:54:06;28.40;58.40
24426;DHT22;12611;44.446;26.000;2023-06-14T11:56:36;28.40;58.20
24426;DHT22;12611;44.446;26.000;2023-06-14T11:59:05;28.40;57.80
24426;DHT22;12611;44.446;26.000;2023-06-14T12:01:38;28.40;57.70
24426;DHT22;12611;44.446;26.000;2023-06-14T12:04:07;28.40;57.20
24426;DHT22;12611;44.446;26.000;2023-06-14T12:06:37;28.50;57.50
24426;DHT22;12611;44.446;26.000;2023-06-14T12:09:07;28.50;57.70
24426;DHT22;12611;44.446;26.000;2023-06-14T12:11:40;28.50;57.70
24426;DHT22;12611;44.446;26.000;2023-06-14T12:14:09;28.60;57.60
24426;DHT22;12611;44.446;26.000;2023-06-14T12:16:39;28.60;57.50
24426;DHT22;12611;44.446;26.000;2023-06-14T12:19:11;28.70;57.60
24426;DHT22;12611;44.446;26.000;2023-06-14T12:21:43;28.80;57.60
24426;DHT22;12611;44.446;26.000;2023-06-14T12:24:16;28.80;57.50
24426;DHT22;12611;44.446;26.000;2023-06-14T12:26:45;28.90;57.50
24426;DHT22;12611;44.446;26.000;2023-06-14T12:29:13;29.00;57.70
24426;DHT22;12611;44.446;26.000;2023-06-14T12:31:42;29.00;57.40
24426;DHT22;12611;44.446;26.000;2023-06-14T12:34:11;29.10;56.80
24426;DHT22;12611;44.446;26.000;2023-06-14T12:36:40;29.30;56.60
24426;DHT22;12611;44.446;26.000;2023-06-14T12:39:13;29.30;56.40
24426;DHT22;12611;44.446;26.000;2023-06-14T12:41:42;29.40;56.70
24426;DHT22;12611;44.446;26.000;2023-06-14T12:44:11;29.40;56.80
24426;DHT22;12611;44.446;26.000;2023-06-14T12:46:40;29.40;56.80
24426;DHT22;12611;44.446;26.000;2023-06-14T12:49:09;29.40;56.70
24426;DHT22;12611;44.446;26.000;2023-06-14T12:51:38;29.40;56.30
24426;DHT22;12611;44.446;26.000;2023-06-14T12:54:07;29.40;55.80
24426;DHT22;12611;44.446;26.000;2023-06-14T12:56:37;29.30;55.80
24426;DHT22;12611;44.446;26.000;2023-06-14T12:59:05;29.30;56.00
24426;DHT22;12611;44.446;26.000;2023-06-14T13:01:34;29.40;56.00
24426;DHT22;12611;44.446;26.000;2023-06-14T13:04:03;29.40;56.10
24426;DHT22;12611;44.446;26.000;2023-06-14T13:06:31;29.50;56.30
24426;DHT22;12611;44.446;26.000;2023-06-14T13:09:00;29.60;56.20
24426;DHT22;12611;44.446;26.000;2023-06-14T13:11:28;29.60;56.30
24426;DHT22;12611;44.446;26.000;2023-06-14T13:13:58;29.60;56.30
24426;DHT22;12611;44.446;26.000;2023-06-14T13:16:39;29.50;56.20
24426;DHT22;12611;44.446;26.000;2023-06-14T13:19:08;29.50;56.20
24426;DHT22;12611;44.446;26.000;2023-06-14T13:21:36;29.50;56.90
24426;DHT22;12611;44.446;26.000;2023-06-14T13:24:05;29.40;55.80
24426;DHT22;12611;44.446;26.000;2023-06-14T13:26:34;29.40;55.90
24426;DHT22;12611;44.446;26.000;2023-06-14T13:29:04;29.30;55.90
24426;DHT22;12611;44.446;26.000;2023-06-14T13:31:32;29.30;56.00
24426;DHT22;12611;44.446;26.000;2023-06-14T13:34:01;29.30;56.00
24426;DHT22;12611;44.446;26.000;2023-06-14T13:36:29;29.30;55.90
24426;DHT22;12611;44.446;26.000;2023-06-14T13:38:58;29.20;55.90
24426;DHT22;12611;44.446;26.000;2023-06-14T13:41:28;29.20;56.00
24426;DHT22;12611;44.446;26.000;2023-06-14T13:43:58;29.10;56.00
24426;DHT22;12611;44.446;26.000;2023-06-14T13:46:28;29.10;56.10
24426;DHT22;12611;44.446;26.000;2023-06-14T13:48:56;29.10;56.20
24426;DHT22;12611;44.446;26.000;2023-06-14T13:51:25;29.00;56.20
24426;DHT22;12611;44.446;26.000;2023-06-14T13:53:54;29.00;56.30
24426;DHT22;12611;44.446;26.000;2023-06-14T13:56:22;29.00;56.40
24426;DHT22;12611;44.446;26.000;2023-06-14T13:58:51;29.00;56.50
24426;DHT22;12611;44.446;26.000;2023-06-14T14:01:19;29.00;56.60
24426;DHT22;12611;44.446;26.000;2023-06-14T14:03:49;29.00;56.60
24426;DHT22;12611;44.446;26.000;2023-06-14T14:06:18;29.00;56.70
24426;DHT22;12611;44.446;26.000;2023-06-14T14:08:47;29.00;56.60
24426;DHT22;12611;44.446;26.000;2023-06-14T14:11:16;28.90;56.50
24426;DHT22;12611;44.446;26.000;2023-06-14T14:13:45;29.00;56.50
24426;DHT22;12611;44.446;26.000;2023-06-14T14:16:13;28.90;56.40
24426;DHT22;12611;44.446;26.000;2023-06-14T14:18:42;28.90;56.50
24426;DHT22;12611;44.446;26.000;2023-06-14T14:21:12;28.90;56.50
24426;DHT22;12611;44.446;26.000;2023-06-14T14:23:40;28.90;56.50
24426;DHT22;12611;44.446;26.000;2023-06-14T14:26:08;29.00;56.50
24426;DHT22;12611;44.446;26.000;2023-06-14T14:28:37;29.00;56.50
24426;DHT22;12611;44.446;26.000;2023-06-14T14:31:05;29.10;56.60
24426;DHT22;12611;44.446;26.000;2023-06-14T14:33:34;29.20;56.40
24426;DHT22;12611;44.446;26.000;2023-06-14T14:36:03;29.20;56.20
24426;DHT22;12611;44.446;26.000;2023-06-14T14:38:34;29.30;56.10
24426;DHT22;12611;44.446;26.000;2023-06-14T14:41:03;29.30;56.10
24426;DHT22;12611;44.446;26.000;2023-06-14T14:43:31;29.30;55.80
24426;DHT22;12611;44.446;26.000;2023-06-14T14:45:59;29.30;55.90
24426;DHT22;12611;44.446;26.000;2023-06-14T14:48:28;29.30;56.00
24426;DHT22;12611;44.446;26.000;2023-06-14T14:50:56;29.30;56.10
24426;DHT22;12611;44.446;26.000;2023-06-14T14:53:25;29.30;56.00
24426;DHT22;12611;44.446;26.000;2023-06-14T14:55:54;29.20;55.70
24426;DHT22;12611;44.446;26.000;2023-06-14T14:58:23;29.20;56.00
24426;DHT22;12611;44.446;26.000;2023-06-14T15:00:51;29.20;56.00
24426;DHT22;12611;44.446;26.000;2023-06-14T15:03:20;29.10;56.10
24426;DHT22;12611;44.446;26.000;2023-06-14T15:05:49;29.20;56.20
24426;DHT22;12611;44.446;26.000;2023-06-14T15:08:17;29.20;56.30
24426;DHT22;12611;44.446;26.000;2023-06-14T15:10:45;29.20;56.40
24426;DHT22;12611;44.446;26.000;2023-06-14T15:13:17;29.20;56.30
24426;DHT22;12611;44.446;26.000;2023-06-14T15:15:45;29.20;56.30
24426;DHT22;12611;44.446;26.000;2023-06-14T15:18:13;29.30;56.40
24426;DHT22;12611;44.446;26.000;2023-06-14T15:20:42;29.30;56.40
24426;DHT22;12611;44.446;26.000;2023-06-14T15:23:10;29.30;56.40
24426;DHT22;12611;44.446;26.000;2023-06-14T15:25:41;29.30;56.30
24426;DHT22;12611;44.446;26.000;2023-06-14T15:28:09;29.30;56.10
24426;DHT22;12611;44.446;26.000;2023-06-14T15:30:39;29.20;55.80
24426;DHT22;12611;44.446;26.000;2023-06-14T15:33:10;29.20;55.90
24426;DHT22;12611;44.446;26.000;2023-06-14T15:35:38;29.20;55.80